sensor_id;sensor_type;location;lat;lon;timestamp;P1;durP1;ratioP1;P2;durP2;ratioP2
31382;SDS011;18014;49.228;11.102;2022-08-01T00:00:54;1.90;;;1.80;;
31382;SDS011;18014;49.228;11.102;2022-08-01T00:02:55;2.30;;;1.63;;
31382;SDS011;18014;49.228;11.102;2022-08-01T00:04:56;2.20;;;2.10;;
31382;SDS011;18014;49.228;11.102;2022-08-01T00:06:57;2.15;;;1.95;;
31382;SDS011;18014;49.228;11.102;2022-08-01T00:08:58;2.08;;;1.88;;
31382;SDS011;18014;49.228;11.102;2022-08-01T00:10:59;1.73;;;1.63;;
31382;SDS011;18014;49.228;11.102;2022-08-01T00:13:00;1.80;;;1.70;;
31382;SDS011;18014;49.228;11.102;2022-08-01T00:15:01;1.73;;;1.63;;
31382;SDS011;18014;49.228;11.102;2022-08-01T00:17:03;1.60;;;1.50;;
31382;SDS011;18014;49.228;11.102;2022-08-01T00:19:04;1.77;;;1.67;;
31382;SDS011;18014;49.228;11.102;2022-08-01T00:21:05;2.28;;;1.52;;
31382;SDS011;18014;49.228;11.102;2022-08-01T00:23:06;1.80;;;1.70;;
31382;SDS011;18014;49.228;11.102;2022-08-01T00:25:07;1.70;;;1.60;;
31382;SDS011;18014;49.228;11.102;2022-08-01T00:27:08;1.95;;;1.85;;
31382;SDS011;18014;49.228;11.102;2022-08-01T00:29:09;1.52;;;1.42;;
31382;SDS011;18014;49.228;11.102;2022-08-01T00:31:10;1.80;;;1.70;;
31382;SDS011;18014;49.228;11.102;2022-08-01T00:33:11;2.20;;;2.00;;
31382;SDS011;18014;49.228;11.102;2022-08-01T00:35:12;1.70;;;1.60;;
31382;SDS011;18014;49.228;11.102;2022-08-01T00:37:13;2.17;;;1.98;;
31382;SDS011;18014;49.228;11.102;2022-08-01T00:39:14;1.60;;;1.50;;
31382;SDS011;18014;49.228;11.102;2022-08-01T00:41:15;2.10;;;1.90;;
31382;SDS011;18014;49.228;11.102;2022-08-01T00:43:16;1.63;;;1.52;;
31382;SDS011;18014;49.228;11.102;2022-08-01T00:45:17;1.80;;;1.58;;
31382;SDS011;18014;49.228;11.102;2022-08-01T00:47:18;1.55;;;1.45;;
31382;SDS011;18014;49.228;11.102;2022-08-01T00:49:19;1.67;;;1.58;;
31382;SDS011;18014;49.228;11.102;2022-08-01T00:51:21;1.50;;;1.40;;
31382;SDS011;18014;49.228;11.102;2022-08-01T00:53:22;2.03;;;1.85;;
31382;SDS011;18014;49.228;11.102;2022-08-01T00:55:26;2.30;;;1.50;;
31382;SDS011;18014;49.228;11.102;2022-08-01T00:59:29;2.30;;;2.10;;
31382;SDS011;18014;49.228;11.102;2022-08-01T01:01:30;1.90;;;1.80;;
31382;SDS011;18014;49.228;11.102;2022-08-01T01:03:31;1.80;;;1.70;;
31382;SDS011;18014;49.228;11.102;2022-08-01T01:05:33;1.67;;;1.58;;
31382;SDS011;18014;49.228;11.102;2022-08-01T01:16:38;1.50;;;1.40;;
31382;SDS011;18014;49.228;11.102;2022-08-01T01:18:43;2.10;;;1.90;;
31382;SDS011;18014;49.228;11.102;2022-08-01T01:23:21;1.67;;;1.57;;
31382;SDS011;18014;49.228;11.102;2022-08-01T01:27:50;1.70;;;1.60;;
31382;SDS011;18014;49.228;11.102;2022-08-01T01:30:04;1.77;;;1.67;;
31382;SDS011;18014;49.228;11.102;2022-08-01T01:32:07;2.33;;;1.80;;
31382;SDS011;18014;49.228;11.102;2022-08-01T01:34:17;1.80;;;1.70;;
31382;SDS011;18014;49.228;11.102;2022-08-01T01:36:19;1.50;;;1.40;;
31382;SDS011;18014;49.228;11.102;2022-08-01T01:38:24;1.70;;;1.60;;
31382;SDS011;18014;49.228;11.102;2022-08-01T01:40:32;1.60;;;1.50;;
31382;SDS011;18014;49.228;11.102;2022-08-01T01:42:33;1.77;;;1.60;;
31382;SDS011;18014;49.228;11.102;2022-08-01T01:44:35;1.65;;;1.55;;
31382;SDS011;18014;49.228;11.102;2022-08-01T01:46:37;1.50;;;1.40;;
31382;SDS011;18014;49.228;11.102;2022-08-01T01:48:39;1.90;;;1.80;;
31382;SDS011;18014;49.228;11.102;2022-08-01T01:50:45;1.58;;;1.48;;
31382;SDS011;18014;49.228;11.102;2022-08-01T01:52:47;1.60;;;1.50;;
31382;SDS011;18014;49.228;11.102;2022-08-01T01:56:51;2.00;;;1.80;;
31382;SDS011;18014;49.228;11.102;2022-08-01T01:58:53;1.60;;;1.50;;
31382;SDS011;18014;49.228;11.102;2022-08-01T02:00:57;1.60;;;1.50;;
31382;SDS011;18014;49.228;11.102;2022-08-01T02:03:00;1.70;;;1.60;;
31382;SDS011;18014;49.228;11.102;2022-08-01T02:05:04;1.80;;;1.70;;
31382;SDS011;18014;49.228;11.102;2022-08-01T02:07:07;1.60;;;1.50;;
31382;SDS011;18014;49.228;11.102;2022-08-01T02:09:09;1.55;;;1.45;;
31382;SDS011;18014;49.228;11.102;2022-08-01T02:11:11;1.67;;;1.58;;
31382;SDS011;18014;49.228;11.102;2022-08-01T02:13:19;1.45;;;1.35;;
31382;SDS011;18014;49.228;11.102;2022-08-01T02:15:20;1.50;;;1.40;;
31382;SDS011;18014;49.228;11.102;2022-08-01T02:17:23;1.63;;;1.40;;
31382;SDS011;18014;49.228;11.102;2022-08-01T02:19:26;1.58;;;1.48;;
31382;SDS011;18014;49.228;11.102;2022-08-01T02:21:30;1.83;;;1.70;;
31382;SDS011;18014;49.228;11.102;2022-08-01T02:23:39;1.48;;;1.40;;
31382;SDS011;18014;49.228;11.102;2022-08-01T02:25:42;1.70;;;1.60;;
31382;SDS011;18014;49.228;11.102;2022-08-01T02:30:02;1.50;;;1.40;;
31382;SDS011;18014;49.228;11.102;2022-08-01T02:32:06;1.60;;;1.50;;
31382;SDS011;18014;49.228;11.102;2022-08-01T02:34:09;1.90;;;1.77;;
31382;SDS011;18014;49.228;11.102;2022-08-01T02:36:10;2.00;;;1.85;;
31382;SDS011;18014;49.228;11.102;2022-08-01T02:38:13;1.20;;;1.20;;
31382;SDS011;18014;49.228;11.102;2022-08-01T02:40:14;1.80;;;1.70;;
31382;SDS011;18014;49.228;11.102;2022-08-01T02:42:17;1.83;;;1.73;;
31382;SDS011;18014;49.228;11.102;2022-08-01T02:44:23;1.58;;;1.48;;
31382;SDS011;18014;49.228;11.102;2022-08-01T02:46:33;1.42;;;1.33;;
31382;SDS011;18014;49.228;11.102;2022-08-01T02:48:44;1.67;;;1.58;;
31382;SDS011;18014;49.228;11.102;2022-08-01T02:52:50;1.60;;;1.50;;
31382;SDS011;18014;49.228;11.102;2022-08-01T02:54:53;1.73;;;1.60;;
31382;SDS011;18014;49.228;11.102;2022-08-01T02:56:55;1.60;;;1.50;;
31382;SDS011;18014;49.228;11.102;2022-08-01T02:58:57;1.52;;;1.42;;
31382;SDS011;18014;49.228;11.102;2022-08-01T03:00:59;1.63;;;1.52;;
31382;SDS011;18014;49.228;11.102;2022-08-01T03:03:01;1.48;;;1.38;;
31382;SDS011;18014;49.228;11.102;2022-08-01T03:05:03;1.50;;;1.40;;
31382;SDS011;18014;49.228;11.102;2022-08-01T03:07:06;1.70;;;1.60;;
31382;SDS011;18014;49.228;11.102;2022-08-01T03:09:09;1.52;;;1.42;;
31382;SDS011;18014;49.228;11.102;2022-08-01T03:11:10;1.80;;;1.70;;
31382;SDS011;18014;49.228;11.102;2022-08-01T03:13:13;1.27;;;1.27;;
31382;SDS011;18014;49.228;11.102;2022-08-01T03:15:16;1.88;;;1.77;;
31382;SDS011;18014;49.228;11.102;2022-08-01T03:17:19;1.60;;;1.50;;
31382;SDS011;18014;49.228;11.102;2022-08-01T03:19:24;1.55;;;1.45;;
31382;SDS011;18014;49.228;11.102;2022-08-01T03:21:26;1.50;;;1.40;;
31382;SDS011;18014;49.228;11.102;2022-08-01T03:23:29;1.63;;;1.52;;
31382;SDS011;18014;49.228;11.102;2022-08-01T03:25:31;1.30;;;1.30;;
31382;SDS011;18014;49.228;11.102;2022-08-01T03:27:35;1.45;;;1.35;;
31382;SDS011;18014;49.228;11.102;2022-08-01T03:29:37;1.60;;;1.50;;
31382;SDS011;18014;49.228;11.102;2022-08-01T03:31:40;1.48;;;1.38;;
31382;SDS011;18014;49.228;11.102;2022-08-01T03:33:44;1.58;;;1.48;;
31382;SDS011;18014;49.228;11.102;2022-08-01T03:35:46;1.67;;;1.58;;
31382;SDS011;18014;49.228;11.102;2022-08-01T03:37:52;1.75;;;1.65;;
31382;SDS011;18014;49.228;11.102;2022-08-01T03:39:58;1.70;;;1.60;;
31382;SDS011;18014;49.228;11.102;2022-08-01T03:42:05;1.73;;;1.63;;
31382;SDS011;18014;49.228;11.102;2022-08-01T03:44:15;1.58;;;1.45;;
31382;SDS011;18014;49.228;11.102;2022-08-01T03:46:30;1.67;;;1.58;;
31382;SDS011;18014;49.228;11.102;2022-08-01T03:48:43;1.50;;;1.40;;
31382;SDS011;18014;49.228;11.102;2022-08-01T03:50:50;1.83;;;1.73;;
31382;SDS011;18014;49.228;11.102;2022-08-01T03:52:52;1.70;;;1.60;;
31382;SDS011;18014;49.228;11.102;2022-08-01T03:54:58;1.55;;;1.45;;
31382;SDS011;18014;49.228;11.102;2022-08-01T03:57:02;1.60;;;1.50;;
31382;SDS011;18014;49.228;11.102;2022-08-01T03:59:04;1.50;;;1.40;;
31382;SDS011;18014;49.228;11.102;2022-08-01T04:01:06;1.75;;;1.65;;
31382;SDS011;18014;49.228;11.102;2022-08-01T04:03:09;1.50;;;1.40;;
31382;SDS011;18014;49.228;11.102;2022-08-01T04:07:23;1.30;;;1.30;;
31382;SDS011;18014;49.228;11.102;2022-08-01T04:09:25;1.70;;;1.60;;
31382;SDS011;18014;49.228;11.102;2022-08-01T04:11:26;1.85;;;1.75;;
31382;SDS011;18014;49.228;11.102;2022-08-01T04:13:28;1.50;;;1.35;;
31382;SDS011;18014;49.228;11.102;2022-08-01T04:15:30;1.70;;;1.60;;
31382;SDS011;18014;49.228;11.102;2022-08-01T04:17:31;1.70;;;1.60;;
31382;SDS011;18014;49.228;11.102;2022-08-01T04:19:32;1.75;;;1.65;;
31382;SDS011;18014;49.228;11.102;2022-08-01T04:21:33;1.40;;;1.30;;
31382;SDS011;18014;49.228;11.102;2022-08-01T04:23:35;2.28;;;1.70;;
31382;SDS011;18014;49.228;11.102;2022-08-01T04:25:37;1.48;;;1.38;;
31382;SDS011;18014;49.228;11.102;2022-08-01T04:27:43;1.50;;;1.40;;
31382;SDS011;18014;49.228;11.102;2022-08-01T04:29:47;1.48;;;1.38;;
31382;SDS011;18014;49.228;11.102;2022-08-01T04:31:51;1.60;;;1.50;;
31382;SDS011;18014;49.228;11.102;2022-08-01T04:33:54;1.25;;;1.23;;
31382;SDS011;18014;49.228;11.102;2022-08-01T04:37:59;1.48;;;1.38;;
31382;SDS011;18014;49.228;11.102;2022-08-01T04:40:03;1.80;;;1.70;;
31382;SDS011;18014;49.228;11.102;2022-08-01T04:42:05;1.40;;;1.30;;
31382;SDS011;18014;49.228;11.102;2022-08-01T04:44:08;1.70;;;1.60;;
31382;SDS011;18014;49.228;11.102;2022-08-01T04:46:09;1.60;;;1.50;;
31382;SDS011;18014;49.228;11.102;2022-08-01T04:48:10;1.85;;;1.63;;
31382;SDS011;18014;49.228;11.102;2022-08-01T04:50:12;1.70;;;1.60;;
31382;SDS011;18014;49.228;11.102;2022-08-01T04:52:13;1.35;;;1.25;;
31382;SDS011;18014;49.228;11.102;2022-08-01T04:54:14;1.52;;;1.42;;
31382;SDS011;18014;49.228;11.102;2022-08-01T04:56:15;1.88;;;1.60;;
31382;SDS011;18014;49.228;11.102;2022-08-01T04:58:17;1.42;;;1.33;;
31382;SDS011;18014;49.228;11.102;2022-08-01T05:00:18;1.60;;;1.50;;
31382;SDS011;18014;49.228;11.102;2022-08-01T05:02:19;1.80;;;1.70;;
31382;SDS011;18014;49.228;11.102;2022-08-01T05:04:20;1.73;;;1.50;;
31382;SDS011;18014;49.228;11.102;2022-08-01T05:06:21;1.80;;;1.70;;
31382;SDS011;18014;49.228;11.102;2022-08-01T05:08:22;1.50;;;1.40;;
31382;SDS011;18014;49.228;11.102;2022-08-01T05:10:23;1.80;;;1.70;;
31382;SDS011;18014;49.228;11.102;2022-08-01T05:12:24;1.60;;;1.50;;
31382;SDS011;18014;49.228;11.102;2022-08-01T05:14:25;1.50;;;1.40;;
31382;SDS011;18014;49.228;11.102;2022-08-01T05:16:27;1.73;;;1.63;;
31382;SDS011;18014;49.228;11.102;2022-08-01T05:18:28;1.77;;;1.67;;
31382;SDS011;18014;49.228;11.102;2022-08-01T05:20:28;1.50;;;1.40;;
31382;SDS011;18014;49.228;11.102;2022-08-01T05:22:29;1.27;;;1.27;;
31382;SDS011;18014;49.228;11.102;2022-08-01T05:24:31;1.70;;;1.60;;
31382;SDS011;18014;49.228;11.102;2022-08-01T05:26:33;1.52;;;1.42;;
31382;SDS011;18014;49.228;11.102;2022-08-01T05:28:34;1.50;;;1.40;;
31382;SDS011;18014;49.228;11.102;2022-08-01T05:30:35;1.85;;;1.75;;
31382;SDS011;18014;49.228;11.102;2022-08-01T05:32:36;1.55;;;1.45;;
31382;SDS011;18014;49.228;11.102;2022-08-01T05:34:37;1.60;;;1.50;;
31382;SDS011;18014;49.228;11.102;2022-08-01T05:36:38;1.67;;;1.58;;
31382;SDS011;18014;49.228;11.102;2022-08-01T05:38:39;1.23;;;1.23;;
31382;SDS011;18014;49.228;11.102;2022-08-01T05:40:40;1.33;;;1.30;;
31382;SDS011;18014;49.228;11.102;2022-08-01T05:42:41;1.38;;;1.30;;
31382;SDS011;18014;49.228;11.102;2022-08-01T05:44:42;1.52;;;1.42;;
31382;SDS011;18014;49.228;11.102;2022-08-01T05:46:43;1.63;;;1.52;;
31382;SDS011;18014;49.228;11.102;2022-08-01T05:48:44;2.20;;;1.90;;
31382;SDS011;18014;49.228;11.102;2022-08-01T05:50:45;1.67;;;1.58;;
31382;SDS011;18014;49.228;11.102;2022-08-01T05:52:47;1.55;;;1.45;;
31382;SDS011;18014;49.228;11.102;2022-08-01T05:54:48;1.60;;;1.50;;
31382;SDS011;18014;49.228;11.102;2022-08-01T05:56:49;1.45;;;1.38;;
31382;SDS011;18014;49.228;11.102;2022-08-01T05:58:50;1.83;;;1.73;;
31382;SDS011;18014;49.228;11.102;2022-08-01T06:00:51;1.25;;;1.20;;
31382;SDS011;18014;49.228;11.102;2022-08-01T06:02:52;1.40;;;1.40;;
31382;SDS011;18014;49.228;11.102;2022-08-01T06:04:53;1.63;;;1.52;;
31382;SDS011;18014;49.228;11.102;2022-08-01T06:06:55;1.35;;;1.25;;
31382;SDS011;18014;49.228;11.102;2022-08-01T06:08:56;1.40;;;1.40;;
31382;SDS011;18014;49.228;11.102;2022-08-01T06:10:57;1.50;;;1.40;;
31382;SDS011;18014;49.228;11.102;2022-08-01T06:12:58;1.65;;;1.38;;
31382;SDS011;18014;49.228;11.102;2022-08-01T06:15:03;1.15;;;1.15;;
31382;SDS011;18014;49.228;11.102;2022-08-01T06:17:04;1.80;;;1.70;;
31382;SDS011;18014;49.228;11.102;2022-08-01T06:19:05;1.55;;;1.45;;
31382;SDS011;18014;49.228;11.102;2022-08-01T06:21:06;1.60;;;1.50;;
31382;SDS011;18014;49.228;11.102;2022-08-01T06:23:07;1.30;;;1.20;;
31382;SDS011;18014;49.228;11.102;2022-08-01T06:25:09;1.50;;;1.40;;
31382;SDS011;18014;49.228;11.102;2022-08-01T06:27:10;1.23;;;1.23;;
31382;SDS011;18014;49.228;11.102;2022-08-01T06:29:11;1.65;;;1.55;;
31382;SDS011;18014;49.228;11.102;2022-08-01T06:31:12;1.45;;;1.35;;
31382;SDS011;18014;49.228;11.102;2022-08-01T06:33:15;1.40;;;1.30;;
31382;SDS011;18014;49.228;11.102;2022-08-01T06:35:16;1.70;;;1.60;;
31382;SDS011;18014;49.228;11.102;2022-08-01T06:37:17;1.50;;;1.40;;
31382;SDS011;18014;49.228;11.102;2022-08-01T06:39:18;2.40;;;1.50;;
31382;SDS011;18014;49.228;11.102;2022-08-01T06:41:19;1.45;;;1.35;;
31382;SDS011;18014;49.228;11.102;2022-08-01T06:43:20;1.40;;;1.30;;
31382;SDS011;18014;49.228;11.102;2022-08-01T06:45:21;1.20;;;1.17;;
31382;SDS011;18014;49.228;11.102;2022-08-01T06:47:24;1.50;;;1.40;;
31382;SDS011;18014;49.228;11.102;2022-08-01T06:49:25;1.60;;;1.50;;
31382;SDS011;18014;49.228;11.102;2022-08-01T06:51:26;1.73;;;1.63;;
31382;SDS011;18014;49.228;11.102;2022-08-01T06:53:27;1.50;;;1.40;;
31382;SDS011;18014;49.228;11.102;2022-08-01T06:55:28;1.48;;;1.40;;
31382;SDS011;18014;49.228;11.102;2022-08-01T06:57:29;1.30;;;1.30;;
31382;SDS011;18014;49.228;11.102;2022-08-01T06:59:30;1.45;;;1.35;;
31382;SDS011;18014;49.228;11.102;2022-08-01T07:01:31;1.42;;;1.30;;
31382;SDS011;18014;49.228;11.102;2022-08-01T07:03:32;1.60;;;1.50;;
31382;SDS011;18014;49.228;11.102;2022-08-01T07:05:34;1.40;;;1.30;;
31382;SDS011;18014;49.228;11.102;2022-08-01T07:07:35;1.30;;;1.23;;
31382;SDS011;18014;49.228;11.102;2022-08-01T07:09:36;1.40;;;1.30;;
31382;SDS011;18014;49.228;11.102;2022-08-01T07:11:40;1.40;;;1.30;;
31382;SDS011;18014;49.228;11.102;2022-08-01T07:13:41;1.80;;;1.58;;
31382;SDS011;18014;49.228;11.102;2022-08-01T07:15:42;1.40;;;1.30;;
31382;SDS011;18014;49.228;11.102;2022-08-01T07:17:43;1.45;;;1.20;;
31382;SDS011;18014;49.228;11.102;2022-08-01T07:19:44;1.50;;;1.42;;
31382;SDS011;18014;49.228;11.102;2022-08-01T07:21:45;1.30;;;1.30;;
31382;SDS011;18014;49.228;11.102;2022-08-01T07:23:46;1.35;;;1.25;;
31382;SDS011;18014;49.228;11.102;2022-08-01T07:25:47;1.42;;;1.33;;
31382;SDS011;18014;49.228;11.102;2022-08-01T07:27:49;1.17;;;1.10;;
31382;SDS011;18014;49.228;11.102;2022-08-01T07:29:50;1.10;;;1.10;;
31382;SDS011;18014;49.228;11.102;2022-08-01T07:31:51;1.30;;;1.15;;
31382;SDS011;18014;49.228;11.102;2022-08-01T07:33:53;1.13;;;1.13;;
31382;SDS011;18014;49.228;11.102;2022-08-01T07:35:54;1.33;;;1.23;;
31382;SDS011;18014;49.228;11.102;2022-08-01T07:37:55;1.20;;;1.20;;
31382;SDS011;18014;49.228;11.102;2022-08-01T07:39:56;2.15;;;1.40;;
31382;SDS011;18014;49.228;11.102;2022-08-01T07:41:56;1.73;;;1.30;;
31382;SDS011;18014;49.228;11.102;2022-08-01T07:43:58;1.27;;;1.20;;
31382;SDS011;18014;49.228;11.102;2022-08-01T07:45:59;1.50;;;1.10;;
31382;SDS011;18014;49.228;11.102;2022-08-01T07:48:04;1.20;;;1.17;;
31382;SDS011;18014;49.228;11.102;2022-08-01T07:50:06;1.35;;;1.25;;
31382;SDS011;18014;49.228;11.102;2022-08-01T07:52:07;1.23;;;1.23;;
31382;SDS011;18014;49.228;11.102;2022-08-01T07:54:08;1.98;;;1.55;;
31382;SDS011;18014;49.228;11.102;2022-08-01T07:56:09;1.60;;;1.50;;
31382;SDS011;18014;49.228;11.102;2022-08-01T07:58:10;1.30;;;1.20;;
31382;SDS011;18014;49.228;11.102;2022-08-01T08:00:11;1.63;;;1.50;;
31382;SDS011;18014;49.228;11.102;2022-08-01T08:02:13;1.70;;;1.60;;
31382;SDS011;18014;49.228;11.102;2022-08-01T08:04:14;1.80;;;1.70;;
31382;SDS011;18014;49.228;11.102;2022-08-01T08:06:15;2.22;;;2.03;;
31382;SDS011;18014;49.228;11.102;2022-08-01T08:08:16;2.53;;;2.08;;
31382;SDS011;18014;49.228;11.102;2022-08-01T08:10:18;2.30;;;2.03;;
31382;SDS011;18014;49.228;11.102;2022-08-01T08:12:19;2.75;;;2.17;;
31382;SDS011;18014;49.228;11.102;2022-08-01T08:14:20;2.72;;;1.83;;
31382;SDS011;18014;49.228;11.102;2022-08-01T08:16:22;2.25;;;2.05;;
31382;SDS011;18014;49.228;11.102;2022-08-01T08:18:23;2.10;;;1.88;;
31382;SDS011;18014;49.228;11.102;2022-08-01T08:20:24;1.98;;;1.75;;
31382;SDS011;18014;49.228;11.102;2022-08-01T08:22:27;1.85;;;1.75;;
31382;SDS011;18014;49.228;11.102;2022-08-01T08:24:27;2.00;;;1.50;;
31382;SDS011;18014;49.228;11.102;2022-08-01T08:26:28;2.13;;;1.70;;
31382;SDS011;18014;49.228;11.102;2022-08-01T08:28:29;1.80;;;1.70;;
31382;SDS011;18014;49.228;11.102;2022-08-01T08:30:31;2.35;;;1.65;;
31382;SDS011;18014;49.228;11.102;2022-08-01T08:32:31;1.70;;;1.60;;
31382;SDS011;18014;49.228;11.102;2022-08-01T08:34:33;1.85;;;1.63;;
31382;SDS011;18014;49.228;11.102;2022-08-01T08:36:34;1.65;;;1.45;;
31382;SDS011;18014;49.228;11.102;2022-08-01T08:38:35;2.45;;;1.90;;
31382;SDS011;18014;49.228;11.102;2022-08-01T08:40:36;2.03;;;1.80;;
31382;SDS011;18014;49.228;11.102;2022-08-01T08:42:38;1.90;;;1.80;;
31382;SDS011;18014;49.228;11.102;2022-08-01T08:44:41;1.88;;;1.70;;
31382;SDS011;18014;49.228;11.102;2022-08-01T08:46:43;2.03;;;1.83;;
31382;SDS011;18014;49.228;11.102;2022-08-01T08:48:45;1.52;;;1.42;;
31382;SDS011;18014;49.228;11.102;2022-08-01T08:50:47;2.00;;;1.48;;
31382;SDS011;18014;49.228;11.102;2022-08-01T08:52:49;1.70;;;1.60;;
31382;SDS011;18014;49.228;11.102;2022-08-01T08:54:54;1.48;;;1.38;;
31382;SDS011;18014;49.228;11.102;2022-08-01T08:56:57;1.50;;;1.40;;
31382;SDS011;18014;49.228;11.102;2022-08-01T08:59:00;1.60;;;1.50;;
31382;SDS011;18014;49.228;11.102;2022-08-01T09:01:01;1.95;;;1.67;;
31382;SDS011;18014;49.228;11.102;2022-08-01T09:03:04;1.60;;;1.50;;
31382;SDS011;18014;49.228;11.102;2022-08-01T09:05:05;1.98;;;1.77;;
31382;SDS011;18014;49.228;11.102;2022-08-01T09:07:07;1.70;;;1.60;;
31382;SDS011;18014;49.228;11.102;2022-08-01T09:09:09;3.08;;;1.35;;
31382;SDS011;18014;49.228;11.102;2022-08-01T09:11:10;2.08;;;1.85;;
31382;SDS011;18014;49.228;11.102;2022-08-01T09:13:12;2.00;;;1.48;;
31382;SDS011;18014;49.228;11.102;2022-08-01T09:15:14;2.22;;;1.70;;
31382;SDS011;18014;49.228;11.102;2022-08-01T09:17:15;1.85;;;1.58;;
31382;SDS011;18014;49.228;11.102;2022-08-01T09:19:19;1.92;;;1.75;;
31382;SDS011;18014;49.228;11.102;2022-08-01T09:21:21;2.65;;;1.50;;
31382;SDS011;18014;49.228;11.102;2022-08-01T09:23:30;1.70;;;1.60;;
31382;SDS011;18014;49.228;11.102;2022-08-01T09:25:49;2.30;;;1.50;;
31382;SDS011;18014;49.228;11.102;2022-08-01T09:28:01;1.92;;;1.70;;
31382;SDS011;18014;49.228;11.102;2022-08-01T09:32:11;2.13;;;1.55;;
31382;SDS011;18014;49.228;11.102;2022-08-01T09:34:13;1.90;;;1.33;;
31382;SDS011;18014;49.228;11.102;2022-08-01T09:36:24;1.40;;;1.30;;
31382;SDS011;18014;49.228;11.102;2022-08-01T09:38:27;1.50;;;1.40;;
31382;SDS011;18014;49.228;11.102;2022-08-01T09:40:43;1.48;;;1.38;;
31382;SDS011;18014;49.228;11.102;2022-08-01T09:43:12;3.03;;;1.63;;
31382;SDS011;18014;49.228;11.102;2022-08-01T09:45:32;1.55;;;1.20;;
31382;SDS011;18014;49.228;11.102;2022-08-01T09:47:39;3.33;;;1.40;;
31382;SDS011;18014;49.228;11.102;2022-08-01T09:49:41;2.63;;;1.60;;
31382;SDS011;18014;49.228;11.102;2022-08-01T09:51:43;1.88;;;1.30;;
31382;SDS011;18014;49.228;11.102;2022-08-01T09:53:46;4.07;;;1.48;;
31382;SDS011;18014;49.228;11.102;2022-08-01T09:55:48;3.05;;;1.60;;
31382;SDS011;18014;49.228;11.102;2022-08-01T09:57:55;1.67;;;1.58;;
31382;SDS011;18014;49.228;11.102;2022-08-01T10:00:00;2.28;;;1.55;;
31382;SDS011;18014;49.228;11.102;2022-08-01T10:06:22;2.10;;;1.70;;
31382;SDS011;18014;49.228;11.102;2022-08-01T10:08:23;1.60;;;1.50;;
31382;SDS011;18014;49.228;11.102;2022-08-01T10:12:26;2.28;;;1.35;;
31382;SDS011;18014;49.228;11.102;2022-08-01T10:14:28;2.35;;;1.50;;
31382;SDS011;18014;49.228;11.102;2022-08-01T10:16:29;6.15;;;1.40;;
31382;SDS011;18014;49.228;11.102;2022-08-01T10:18:32;1.63;;;1.50;;
31382;SDS011;18014;49.228;11.102;2022-08-01T10:20:35;2.75;;;1.30;;
31382;SDS011;18014;49.228;11.102;2022-08-01T10:22:36;2.50;;;1.40;;
31382;SDS011;18014;49.228;11.102;2022-08-01T10:24:39;4.32;;;1.20;;
31382;SDS011;18014;49.228;11.102;2022-08-01T10:26:41;1.30;;;1.20;;
31382;SDS011;18014;49.228;11.102;2022-08-01T10:28:43;2.90;;;1.33;;
31382;SDS011;18014;49.228;11.102;2022-08-01T10:30:47;3.30;;;1.35;;
31382;SDS011;18014;49.228;11.102;2022-08-01T10:32:49;1.73;;;1.10;;
31382;SDS011;18014;49.228;11.102;2022-08-01T10:34:52;1.42;;;1.30;;
31382;SDS011;18014;49.228;11.102;2022-08-01T10:36:54;1.73;;;1.20;;
31382;SDS011;18014;49.228;11.102;2022-08-01T10:38:55;1.27;;;1.15;;
31382;SDS011;18014;49.228;11.102;2022-08-01T10:40:56;1.53;;;1.37;;
31382;SDS011;18014;49.228;11.102;2022-08-01T10:42:58;1.45;;;1.20;;
31382;SDS011;18014;49.228;11.102;2022-08-01T10:45:00;1.55;;;1.08;;
31382;SDS011;18014;49.228;11.102;2022-08-01T10:47:04;1.58;;;1.48;;
31382;SDS011;18014;49.228;11.102;2022-08-01T10:49:15;1.13;;;1.10;;
31382;SDS011;18014;49.228;11.102;2022-08-01T10:51:20;1.40;;;1.30;;
31382;SDS011;18014;49.228;11.102;2022-08-01T10:53:22;1.02;;;1.00;;
31382;SDS011;18014;49.228;11.102;2022-08-01T10:55:24;1.38;;;1.27;;
31382;SDS011;18014;49.228;11.102;2022-08-01T10:57:25;1.30;;;1.20;;
31382;SDS011;18014;49.228;11.102;2022-08-01T10:59:51;1.58;;;1.48;;
31382;SDS011;18014;49.228;11.102;2022-08-01T11:01:58;1.30;;;1.20;;
31382;SDS011;18014;49.228;11.102;2022-08-01T11:04:02;1.50;;;1.40;;
31382;SDS011;18014;49.228;11.102;2022-08-01T11:06:06;1.48;;;1.00;;
31382;SDS011;18014;49.228;11.102;2022-08-01T11:08:22;1.00;;;1.00;;
31382;SDS011;18014;49.228;11.102;2022-08-01T11:12:38;1.30;;;1.13;;
31382;SDS011;18014;49.228;11.102;2022-08-01T11:15:16;1.63;;;1.10;;
31382;SDS011;18014;49.228;11.102;2022-08-01T11:17:29;1.45;;;1.35;;
31382;SDS011;18014;49.228;11.102;2022-08-01T11:22:03;1.15;;;1.15;;
31382;SDS011;18014;49.228;11.102;2022-08-01T11:24:04;1.30;;;1.13;;
31382;SDS011;18014;49.228;11.102;2022-08-01T11:26:06;1.00;;;1.00;;
31382;SDS011;18014;49.228;11.102;2022-08-01T11:32:26;2.45;;;1.10;;
31382;SDS011;18014;49.228;11.102;2022-08-01T11:37:22;1.08;;;1.08;;
31382;SDS011;18014;49.228;11.102;2022-08-01T11:39:24;1.10;;;1.00;;
31382;SDS011;18014;49.228;11.102;2022-08-01T11:41:30;1.27;;;1.02;;
31382;SDS011;18014;49.228;11.102;2022-08-01T11:43:32;1.52;;;1.05;;
31382;SDS011;18014;49.228;11.102;2022-08-01T11:45:52;1.02;;;1.02;;
31382;SDS011;18014;49.228;11.102;2022-08-01T11:47:55;1.10;;;1.10;;
31382;SDS011;18014;49.228;11.102;2022-08-01T11:49:56;1.10;;;1.10;;
31382;SDS011;18014;49.228;11.102;2022-08-01T11:54:05;1.10;;;1.10;;
31382;SDS011;18014;49.228;11.102;2022-08-01T11:56:06;0.90;;;0.90;;
31382;SDS011;18014;49.228;11.102;2022-08-01T11:58:07;1.25;;;1.15;;
31382;SDS011;18014;49.228;11.102;2022-08-01T12:02:20;3.42;;;1.10;;
31382;SDS011;18014;49.228;11.102;2022-08-01T12:04:21;1.23;;;1.10;;
31382;SDS011;18014;49.228;11.102;2022-08-01T12:06:28;1.13;;;1.13;;
31382;SDS011;18014;49.228;11.102;2022-08-01T12:08:31;1.17;;;1.08;;
31382;SDS011;18014;49.228;11.102;2022-08-01T12:10:36;1.65;;;1.17;;
31382;SDS011;18014;49.228;11.102;2022-08-01T12:12:41;1.50;;;1.05;;
31382;SDS011;18014;49.228;11.102;2022-08-01T12:14:44;1.10;;;1.10;;
31382;SDS011;18014;49.228;11.102;2022-08-01T12:16:52;0.93;;;0.90;;
31382;SDS011;18014;49.228;11.102;2022-08-01T12:18:54;2.47;;;1.05;;
31382;SDS011;18014;49.228;11.102;2022-08-01T12:21:00;2.00;;;0.90;;
31382;SDS011;18014;49.228;11.102;2022-08-01T12:23:06;1.00;;;1.00;;
31382;SDS011;18014;49.228;11.102;2022-08-01T12:25:17;1.20;;;1.10;;
31382;SDS011;18014;49.228;11.102;2022-08-01T12:27:27;0.70;;;0.70;;
31382;SDS011;18014;49.228;11.102;2022-08-01T12:29:33;1.13;;;0.90;;
31382;SDS011;18014;49.228;11.102;2022-08-01T12:31:39;0.82;;;0.80;;
31382;SDS011;18014;49.228;11.102;2022-08-01T12:33:40;1.30;;;1.00;;
31382;SDS011;18014;49.228;11.102;2022-08-01T12:35:41;2.45;;;0.93;;
31382;SDS011;18014;49.228;11.102;2022-08-01T12:37:43;1.88;;;1.10;;
31382;SDS011;18014;49.228;11.102;2022-08-01T12:39:46;1.15;;;0.82;;
31382;SDS011;18014;49.228;11.102;2022-08-01T12:41:47;0.68;;;0.68;;
31382;SDS011;18014;49.228;11.102;2022-08-01T12:43:49;3.50;;;0.75;;
31382;SDS011;18014;49.228;11.102;2022-08-01T12:45:50;1.25;;;1.00;;
31382;SDS011;18014;49.228;11.102;2022-08-01T12:47:52;0.90;;;0.90;;
31382;SDS011;18014;49.228;11.102;2022-08-01T12:49:54;1.08;;;0.90;;
31382;SDS011;18014;49.228;11.102;2022-08-01T12:51:55;0.90;;;0.90;;
31382;SDS011;18014;49.228;11.102;2022-08-01T12:54:00;2.20;;;1.20;;
31382;SDS011;18014;49.228;11.102;2022-08-01T12:56:01;3.42;;;0.93;;
31382;SDS011;18014;49.228;11.102;2022-08-01T12:58:11;1.88;;;0.80;;
31382;SDS011;18014;49.228;11.102;2022-08-01T13:00:15;1.00;;;0.90;;